createdAt,value
2022-08-26T07:11:49.211Z,686.25
2022-08-26T07:13:09.958Z,691.88
2022-08-26T07:13:48.980Z,686.25
2022-08-26T07:14:49.066Z,691.88
2022-08-26T07:15:49.144Z,691.88
2022-08-26T07:16:49.140Z,680.63
2022-08-26T07:17:49.198Z,708.75
2022-08-26T07:18:49.795Z,720.00
2022-08-26T07:19:49.329Z,731.25
2022-08-26T07:20:49.355Z,736.88
2022-08-26T07:21:50.446Z,742.50
2022-08-26T07:26:03.755Z,770.63
2022-08-26T07:27:03.785Z,776.25
2022-08-26T07:28:03.845Z,781.88
2022-08-26T07:29:03.925Z,793.13
2022-08-26T07:30:03.966Z,793.13
2022-08-26T07:31:04.033Z,793.13
2022-08-26T07:32:04.097Z,759.38
2022-08-26T07:52:27.864Z,933.75
2022-08-26T07:53:27.890Z,939.38
2022-08-26T07:54:27.941Z,933.75
2022-08-26T07:55:27.998Z,939.38
2022-08-26T07:58:48.996Z,973.13
2022-08-26T07:59:45.197Z,978.75
2022-08-26T08:00:45.254Z,984.38
2022-08-26T08:01:45.512Z,990.00
2022-08-26T08:02:45.365Z,1001.25
2022-08-26T08:03:45.453Z,1006.88
2022-08-26T08:04:45.517Z,1012.50
2022-08-26T08:05:46.344Z,1012.50
2022-08-26T08:06:45.597Z,1018.13
2022-08-26T08:07:45.664Z,1023.75
2022-08-26T08:08:45.738Z,1040.63
2022-08-26T08:09:45.774Z,1035.00
2022-08-26T08:10:48.288Z,1040.63
2022-08-26T08:11:45.879Z,1051.88
2022-08-26T08:12:45.939Z,1057.50
2022-08-26T08:13:46.017Z,1057.50
2022-08-26T08:14:46.072Z,1068.75
2022-08-26T08:15:46.115Z,1068.75
2022-08-26T08:16:46.956Z,1074.38
2022-08-26T08:17:46.247Z,1080.00
2022-08-26T08:18:46.282Z,1085.63
2022-08-26T08:19:46.338Z,1096.88
2022-08-26T08:21:04.708Z,1096.88
2022-08-26T08:21:46.479Z,1113.75
2022-08-26T08:22:46.512Z,1119.38
2022-08-26T08:23:46.565Z,1113.75
2022-08-26T08:24:46.639Z,1108.13
2022-08-26T08:25:46.676Z,1113.75
2022-08-26T08:26:46.792Z,1125.00
2022-08-26T08:27:46.827Z,1136.25
2022-08-26T08:28:47.842Z,1136.25
2022-08-26T08:29:46.906Z,1141.88
2022-08-26T08:30:47.067Z,1147.50
2022-08-26T08:32:02.318Z,1153.13
2022-08-26T08:32:47.080Z,1153.13
2022-08-26T08:33:47.136Z,1164.38
2022-08-26T08:34:47.203Z,1181.25
2022-08-26T08:35:47.252Z,1181.25
2022-08-26T08:36:47.335Z,1186.88
2022-08-26T08:37:47.367Z,1198.13
2022-08-26T08:38:47.430Z,1192.50
2022-08-26T08:39:47.519Z,1198.13
2022-08-26T08:40:47.568Z,1209.38
2022-08-26T08:41:47.627Z,1220.63
2022-08-26T08:42:47.682Z,1226.25
2022-08-26T08:43:47.734Z,1226.25
2022-08-26T08:44:52.075Z,1231.88
2022-08-26T08:45:47.858Z,1237.50
2022-08-26T08:47:02.440Z,1248.75
2022-08-26T08:47:47.974Z,1254.38
2022-08-26T08:48:49.954Z,1254.38
2022-08-26T08:49:48.052Z,1260.00
2022-08-26T08:50:48.116Z,1265.63
2022-08-26T08:52:09.196Z,1265.63
2022-08-26T08:52:48.258Z,1260.00
2022-08-26T08:53:48.291Z,1254.38
2022-08-26T08:54:48.356Z,1254.38
2022-08-26T08:55:48.399Z,1254.38
2022-08-26T08:56:48.480Z,1271.25
2022-08-26T08:57:48.516Z,1282.50
2022-08-26T08:58:48.576Z,1293.75
2022-08-26T08:59:48.630Z,1288.13
2022-08-26T09:00:48.704Z,1299.38
2022-08-26T09:01:52.458Z,1316.25
2022-08-26T09:02:48.874Z,1321.88
2022-08-26T09:03:48.856Z,1333.13
2022-08-26T09:04:48.937Z,1338.75
2022-08-26T09:05:49.016Z,1350.00
2022-08-26T09:06:49.095Z,1355.63
2022-08-26T09:07:51.081Z,1372.50
2022-08-26T09:08:50.497Z,1366.88
2022-08-26T09:09:49.243Z,1361.25
2022-08-26T09:10:49.259Z,1361.25
2022-08-26T09:11:49.328Z,1355.63
2022-08-26T09:12:49.390Z,1350.00
2022-08-26T09:13:49.504Z,1361.25
2022-08-26T09:14:49.538Z,1366.88
2022-08-26T09:15:49.553Z,1372.50
2022-08-26T09:16:49.651Z,1372.50
2022-08-26T09:17:49.673Z,1383.75
2022-08-26T09:18:49.736Z,1400.63
2022-08-26T09:19:49.809Z,1400.63
2022-08-26T09:20:49.841Z,1411.88
2022-08-26T09:21:53.492Z,1411.88
2022-08-26T09:22:49.987Z,1423.13
2022-08-26T09:23:50.017Z,1423.13
2022-08-26T09:24:50.076Z,1417.50
2022-08-26T09:25:50.177Z,1423.13
2022-08-26T09:26:50.213Z,1423.13
2022-08-26T09:27:50.928Z,1428.75
2022-08-26T09:38:50.268Z,1468.13
2022-08-26T09:39:50.381Z,1473.75
2022-08-26T09:40:50.399Z,1485.00
2022-08-26T09:53:57.539Z,1513.13
2022-08-26T09:54:57.469Z,1496.25
2022-08-26T09:55:57.528Z,1518.75
2022-08-26T09:56:57.596Z,1524.38
2022-08-26T09:57:59.965Z,1524.38
2022-08-26T09:58:57.690Z,1541.25
2022-08-26T09:59:57.740Z,1535.63
2022-08-26T10:00:57.840Z,1530.00
2022-08-26T10:03:25.107Z,1445.63
2022-08-26T10:05:09.302Z,1400.63
2022-08-26T10:06:04.042Z,1012.50
2022-08-26T10:07:04.104Z,1372.50
2022-08-26T10:08:04.155Z,1546.88
2022-08-26T10:09:08.223Z,483.75
2022-08-26T10:10:04.270Z,1428.75
2022-08-26T10:11:04.327Z,1327.50
2022-08-26T10:12:04.385Z,1186.88
2022-08-26T10:13:04.466Z,804.38
2022-08-26T10:14:04.503Z,1063.13
2022-08-26T10:15:04.562Z,1400.63
2022-08-26T10:16:04.616Z,1158.75
2022-08-26T10:17:06.826Z,1321.88
2022-08-26T10:18:07.777Z,933.75
2022-08-26T10:19:04.775Z,883.13
2022-08-26T10:20:04.850Z,956.25
2022-08-26T10:21:04.895Z,1096.88
2022-08-26T10:22:04.989Z,1153.13
2022-08-26T10:23:04.999Z,1153.13
2022-08-26T10:24:05.055Z,1198.13
2022-08-26T10:25:05.113Z,1580.63
2022-08-26T10:26:05.173Z,1580.63
2022-08-26T10:27:05.254Z,1580.63
2022-08-26T10:28:05.414Z,1603.13
2022-08-26T10:29:05.343Z,1614.38
2022-08-26T10:30:05.398Z,1614.38
2022-08-26T10:31:05.452Z,1614.38
2022-08-26T10:32:05.571Z,1625.63
2022-08-26T10:33:05.647Z,1625.63
2022-08-26T10:34:05.631Z,1625.63
2022-08-26T10:35:05.690Z,1625.63
2022-08-26T10:36:05.769Z,1631.25
2022-08-26T10:37:13.824Z,1636.88
2022-08-26T10:38:05.920Z,1636.88
2022-08-26T10:39:05.919Z,1608.75
2022-08-26T10:40:06.072Z,1445.63
2022-08-26T10:41:10.484Z,1344.38
2022-08-26T10:42:06.117Z,1321.88
2022-08-26T10:43:11.033Z,1569.38
2022-08-26T10:44:06.224Z,1569.38
2022-08-26T10:45:06.267Z,1378.13
2022-08-26T10:46:06.961Z,1569.38
2022-08-26T10:47:06.387Z,1586.25
2022-08-26T10:48:06.576Z,1518.75
2022-08-26T10:49:06.834Z,1361.25
2022-08-26T10:50:06.610Z,1546.88
2022-08-26T10:51:06.632Z,1575.00
2022-08-26T10:52:12.246Z,1541.25
2022-08-26T10:53:08.672Z,1501.88
2022-08-26T10:54:06.795Z,1541.25
2022-08-26T10:55:06.852Z,1535.63
2022-08-26T10:56:06.908Z,1485.00
2022-08-26T10:57:07.011Z,1473.75
2022-08-26T10:58:09.066Z,1513.13
2022-08-26T10:59:10.250Z,1546.88
2022-08-26T11:00:07.179Z,1591.88
2022-08-26T11:01:10.507Z,1591.88
2022-08-26T11:02:07.310Z,1586.25
2022-08-26T11:03:09.552Z,1591.88
2022-08-26T11:04:07.452Z,1569.38
2022-08-26T11:05:07.460Z,1546.88
2022-08-26T11:06:07.516Z,1513.13
2022-08-26T11:07:07.580Z,1524.38
2022-08-26T11:08:07.749Z,1530.00
2022-08-26T11:09:07.720Z,1535.63
2022-08-26T11:10:07.744Z,1530.00
2022-08-26T11:11:07.807Z,1479.38
2022-08-26T11:12:10.036Z,1333.13
2022-08-26T11:13:08.155Z,1501.88
2022-08-26T11:14:08.017Z,1513.13
2022-08-26T11:15:08.055Z,1530.00
2022-08-26T11:16:08.101Z,1552.50
2022-08-26T11:17:08.186Z,1569.38
2022-08-26T11:18:08.322Z,1468.13
2022-08-26T11:19:08.352Z,1248.75
2022-08-26T11:20:13.626Z,1136.25
2022-08-26T11:21:10.317Z,1282.50
2022-08-26T11:22:08.448Z,1378.13
2022-08-26T11:23:08.564Z,1378.13
2022-08-26T11:24:08.624Z,1293.75
2022-08-26T11:25:08.636Z,1186.88
2022-08-26T11:26:08.790Z,1248.75
2022-08-26T11:27:08.832Z,1299.38
2022-08-26T11:28:09.018Z,1361.25
2022-08-26T11:29:12.219Z,1456.88
2022-08-26T11:30:08.937Z,1456.88
2022-08-26T11:31:09.071Z,1355.63
2022-08-26T11:32:09.087Z,770.63
2022-08-26T11:33:09.284Z,1046.25
2022-08-26T11:34:10.861Z,1035.00
2022-08-26T11:35:09.238Z,1096.88
2022-08-26T11:36:12.486Z,1057.50
2022-08-26T11:37:09.400Z,1170.00
2022-08-26T11:38:09.522Z,1355.63
2022-08-26T11:39:09.545Z,1395.00
2022-08-26T11:40:09.631Z,1501.88
2022-08-26T11:41:09.593Z,1473.75
2022-08-26T11:42:09.668Z,1485.00
2022-08-26T11:43:09.719Z,1479.38
2022-08-26T11:44:09.780Z,1462.50
2022-08-26T11:45:09.869Z,1462.50
2022-08-26T11:46:09.966Z,1282.50
2022-08-26T11:47:11.528Z,1400.63
2022-08-26T11:48:10.080Z,1406.25
2022-08-26T11:49:10.081Z,1417.50
2022-08-26T11:50:10.179Z,1434.38
2022-08-26T11:51:10.236Z,1417.50
2022-08-26T11:52:10.259Z,1423.13
2022-08-26T11:53:10.320Z,1428.75
2022-08-26T11:54:10.390Z,1417.50
2022-08-26T11:55:10.480Z,1400.63
2022-08-26T11:56:10.541Z,1395.00
2022-08-26T11:57:11.941Z,1383.75
2022-08-26T11:58:10.802Z,1383.75
2022-08-26T11:59:10.688Z,1383.75
2022-08-26T12:00:13.547Z,1361.25
2022-08-26T12:01:11.504Z,1333.13
2022-08-26T12:02:10.878Z,1355.63
2022-08-26T12:03:11.275Z,1355.63
2022-08-26T12:04:11.102Z,1333.13
2022-08-26T12:05:11.121Z,1344.38
2022-08-26T12:06:11.121Z,1338.75
2022-08-26T12:07:11.185Z,1350.00
2022-08-26T12:08:11.413Z,1350.00
2022-08-26T12:09:11.305Z,1305.00
2022-08-26T12:10:11.433Z,1248.75
2022-08-26T12:11:11.492Z,1271.25
2022-08-26T12:12:12.128Z,1271.25
2022-08-26T12:13:11.552Z,1265.63
2022-08-26T12:14:11.644Z,1237.50
2022-08-26T12:15:11.705Z,1231.88
2022-08-26T12:17:55.272Z,1220.63
2022-08-26T12:18:55.302Z,1220.63
2022-08-26T12:19:55.361Z,1215.00
2022-08-26T12:20:55.422Z,1209.38
2022-08-26T12:21:55.490Z,1215.00
2022-08-26T12:22:55.572Z,1203.75
2022-08-26T12:23:55.635Z,1113.75
2022-08-26T12:24:55.669Z,1029.38
2022-08-26T12:25:55.732Z,1096.88
2022-08-26T12:26:55.812Z,1046.25
2022-08-26T12:27:55.856Z,1012.50
2022-08-26T12:28:55.997Z,939.38
2022-08-26T12:29:55.989Z,871.88
2022-08-26T12:30:56.053Z,883.13
2022-08-26T12:31:56.192Z,871.88
2022-08-26T12:32:58.768Z,849.38
2022-08-26T12:33:56.260Z,787.50
2022-08-26T12:34:56.336Z,804.38
2022-08-26T12:35:56.933Z,843.75
2022-08-26T12:36:56.560Z,753.75
2022-08-26T12:37:56.486Z,759.38
2022-08-26T12:38:58.262Z,675.00
2022-08-26T12:39:56.666Z,691.88
2022-08-26T12:40:56.706Z,663.75
2022-08-26T12:41:56.778Z,630.00
2022-08-26T12:42:56.810Z,630.00
2022-08-26T12:43:56.856Z,697.50
2022-08-26T12:44:56.927Z,590.63
2022-08-26T12:45:57.058Z,585.00
2022-08-26T12:46:57.040Z,573.75
2022-08-26T12:47:57.127Z,607.50
2022-08-26T12:48:57.182Z,635.63
2022-08-26T12:49:57.244Z,770.63
2022-08-26T12:50:57.311Z,798.75
2022-08-26T12:51:57.365Z,821.25
2022-08-26T12:52:57.463Z,832.50
2022-08-26T12:53:57.486Z,832.50
2022-08-26T12:54:57.582Z,922.50
2022-08-26T12:55:57.625Z,916.88
2022-08-26T12:56:57.660Z,995.63
2022-08-26T12:57:57.759Z,956.25
2022-08-26T12:58:57.808Z,967.50
2022-08-26T12:59:57.851Z,1012.50
2022-08-26T13:00:58.006Z,990.00
2022-08-26T13:01:58.206Z,843.75
2022-08-26T13:02:58.062Z,736.88
2022-08-26T13:03:58.131Z,663.75
2022-08-26T13:05:00.710Z,781.88
2022-08-26T13:05:58.240Z,810.00
2022-08-26T13:06:58.300Z,810.00
2022-08-26T13:07:58.426Z,855.00
2022-08-26T13:08:58.458Z,888.75
2022-08-26T13:09:58.484Z,894.38
2022-08-26T13:10:58.546Z,860.63
2022-08-26T13:11:58.613Z,922.50
2022-08-26T13:12:58.675Z,973.13
2022-08-26T13:13:58.765Z,978.75
2022-08-26T13:14:58.832Z,990.00
2022-08-26T13:15:58.909Z,984.38
2022-08-26T13:16:58.953Z,973.13
2022-08-26T13:17:59.012Z,978.75
2022-08-26T13:18:59.057Z,978.75
2022-08-26T13:20:03.300Z,1012.50
2022-08-26T13:20:59.213Z,1012.50
2022-08-26T13:21:59.252Z,1006.88
2022-08-26T13:22:59.438Z,978.75
2022-08-26T13:23:59.384Z,945.00
2022-08-26T13:24:59.466Z,933.75
2022-08-26T13:25:59.518Z,916.88
2022-08-26T13:26:59.615Z,950.63
2022-08-26T13:27:59.642Z,905.63
2022-08-26T13:29:02.171Z,855.00
2022-08-26T13:29:59.771Z,843.75
2022-08-26T13:30:59.839Z,883.13
2022-08-26T13:31:59.933Z,832.50
2022-08-26T13:32:59.972Z,855.00
2022-08-26T13:34:00.030Z,838.13
2022-08-26T13:35:00.094Z,815.63
2022-08-26T13:36:00.161Z,826.88
2022-08-26T13:37:00.298Z,849.38
2022-08-26T13:38:00.308Z,849.38
2022-08-26T13:39:00.354Z,832.50
2022-08-26T13:40:00.493Z,849.38
2022-08-26T13:41:00.515Z,838.13
2022-08-26T13:42:00.550Z,826.88
2022-08-26T13:43:00.618Z,832.50
2022-08-26T13:44:00.684Z,804.38
2022-08-26T13:45:00.769Z,815.63
2022-08-26T13:46:00.812Z,793.13
2022-08-26T13:47:00.884Z,759.38
2022-08-26T13:48:00.942Z,731.25
2022-08-26T13:49:01.003Z,708.75
2022-08-26T13:50:01.135Z,697.50
2022-08-26T13:51:01.136Z,613.13
2022-08-26T13:52:01.221Z,596.25
2022-08-26T13:53:01.306Z,601.88
2022-08-26T13:54:01.328Z,635.63
2022-08-26T13:55:01.393Z,663.75
2022-08-26T13:56:01.457Z,680.63
2022-08-26T13:57:01.525Z,691.88
2022-08-26T13:58:01.616Z,663.75
2022-08-26T13:59:01.651Z,652.50
2022-08-26T14:00:01.718Z,663.75
2022-08-26T14:01:01.866Z,663.75
2022-08-26T14:02:01.841Z,675.00
2022-08-26T14:03:01.979Z,646.88
2022-08-26T14:04:01.973Z,691.88
2022-08-26T14:05:02.042Z,714.38
2022-08-26T14:06:02.105Z,725.63
2022-08-26T14:07:02.174Z,720.00
2022-08-26T14:08:02.318Z,731.25
2022-08-26T14:09:02.299Z,731.25
2022-08-26T14:10:02.415Z,731.25
2022-08-26T14:11:02.439Z,720.00
2022-08-26T14:12:02.880Z,720.00
2022-08-26T14:13:02.618Z,703.13
2022-08-26T14:14:02.630Z,697.50
2022-08-26T14:15:02.694Z,691.88
2022-08-26T14:16:02.803Z,680.63
2022-08-26T14:17:02.871Z,669.38
2022-08-26T14:18:02.892Z,675.00
2022-08-26T14:19:02.967Z,663.75
2022-08-26T14:20:03.023Z,630.00
2022-08-26T14:21:03.119Z,630.00
2022-08-26T14:22:03.159Z,641.25
2022-08-26T14:23:13.719Z,641.25
2022-08-26T14:24:03.298Z,641.25
2022-08-26T14:25:03.360Z,624.38
2022-08-26T14:26:03.452Z,618.75
2022-08-26T14:27:03.494Z,590.63
2022-08-26T14:28:03.595Z,585.00
2022-08-26T14:29:03.729Z,573.75
2022-08-26T14:30:03.697Z,562.50
2022-08-26T14:31:03.788Z,545.63
2022-08-26T14:32:03.825Z,545.63
2022-08-26T14:33:03.934Z,534.38
2022-08-26T14:34:03.961Z,540.00
2022-08-26T14:35:04.029Z,545.63
2022-08-26T14:36:04.094Z,556.88
2022-08-26T14:37:07.624Z,545.63
2022-08-26T14:38:04.251Z,551.25
2022-08-26T14:39:04.337Z,551.25
2022-08-26T14:40:04.437Z,545.63
2022-08-26T14:41:04.442Z,540.00
2022-08-26T14:42:04.524Z,534.38
2022-08-26T14:43:04.567Z,528.75
2022-08-26T14:44:04.633Z,489.38
2022-08-26T14:45:04.728Z,495.00
2022-08-26T14:46:04.812Z,495.00
2022-08-26T14:47:04.834Z,506.25
2022-08-26T14:48:04.975Z,495.00
2022-08-26T14:49:08.529Z,489.38
2022-08-26T14:50:05.058Z,483.75
2022-08-26T14:51:05.100Z,483.75
2022-08-26T14:52:05.180Z,472.50
2022-08-26T14:53:05.236Z,466.88
2022-08-26T14:54:05.302Z,472.50
2022-08-26T14:55:05.414Z,478.13
2022-08-26T14:56:05.435Z,455.63
2022-08-26T14:57:05.504Z,421.88
2022-08-26T14:58:05.602Z,416.25
2022-08-26T14:59:05.637Z,405.00
2022-08-26T15:00:05.759Z,399.38
2022-08-26T15:01:05.774Z,405.00
2022-08-26T15:02:05.956Z,410.63
2022-08-26T15:03:06.045Z,393.75
2022-08-26T15:04:05.974Z,399.38
2022-08-26T15:05:06.058Z,382.50
2022-08-26T15:06:06.101Z,399.38
2022-08-26T15:07:06.197Z,405.00
2022-08-26T15:08:06.293Z,410.63
2022-08-26T15:09:06.306Z,405.00
2022-08-26T15:10:06.427Z,405.00
2022-08-26T15:11:06.437Z,405.00
2022-08-26T15:12:06.499Z,388.13
2022-08-26T15:13:06.591Z,382.50
2022-08-26T15:14:06.635Z,371.25
2022-08-26T15:15:06.706Z,376.88
2022-08-26T15:16:06.817Z,371.25
2022-08-26T15:17:06.842Z,365.63
2022-08-26T15:18:06.931Z,365.63
2022-08-26T15:19:06.970Z,365.63
2022-08-26T15:20:07.036Z,365.63
2022-08-26T15:21:07.107Z,365.63
2022-08-26T15:22:07.172Z,360.00
2022-08-26T15:23:07.420Z,354.38
2022-08-26T15:24:07.307Z,348.75
2022-08-26T15:25:07.376Z,348.75
2022-08-26T15:26:07.469Z,343.13
2022-08-26T15:27:07.508Z,343.13
2022-08-26T15:28:07.578Z,337.50
2022-08-26T15:29:07.641Z,326.25
2022-08-26T15:30:07.708Z,326.25
2022-08-26T15:31:07.920Z,326.25
2022-08-26T15:32:07.846Z,315.00
2022-08-26T15:33:14.892Z,303.75
2022-08-26T15:34:07.981Z,309.38
2022-08-26T15:35:09.315Z,309.38
2022-08-26T15:36:08.111Z,309.38
2022-08-26T15:37:23.013Z,303.75
2022-08-26T15:38:08.404Z,298.13
2022-08-26T15:39:08.313Z,292.50
2022-08-26T15:40:08.399Z,286.88
2022-08-26T15:41:08.447Z,286.88
2022-08-26T15:42:08.510Z,286.88
2022-08-26T15:43:25.671Z,281.25
2022-08-26T15:44:08.651Z,275.63
2022-08-26T15:45:08.714Z,275.63
2022-08-26T15:46:08.804Z,270.00
2022-08-26T15:47:08.871Z,264.38
2022-08-26T15:48:08.916Z,258.75
2022-08-26T15:49:08.983Z,258.75
2022-08-26T15:50:09.052Z,253.13
2022-08-26T15:51:09.139Z,247.50
2022-08-26T15:52:09.210Z,247.50
2022-08-26T15:53:09.255Z,247.50
2022-08-26T15:54:10.282Z,241.88
2022-08-26T15:55:09.419Z,236.25
2022-08-26T15:56:09.451Z,236.25
2022-08-26T15:57:11.502Z,230.63
2022-08-26T15:58:09.723Z,213.75
2022-08-26T15:59:09.656Z,213.75
2022-08-26T16:00:09.744Z,213.75
2022-08-26T16:01:09.796Z,213.75
2022-08-26T16:02:09.923Z,208.13
2022-08-26T16:03:09.926Z,213.75
2022-08-26T16:04:09.985Z,208.13
2022-08-26T16:05:10.051Z,208.13
2022-08-26T16:06:10.163Z,163.13
2022-08-26T16:07:10.185Z,106.88
2022-08-26T16:08:10.370Z,90.00
2022-08-26T16:09:10.319Z,90.00
2022-08-26T16:10:10.407Z,90.00
2022-08-26T16:11:10.456Z,90.00
2022-08-26T16:12:10.549Z,90.00
2022-08-26T16:13:12.957Z,84.38
2022-08-26T16:14:10.665Z,84.38
2022-08-26T16:15:10.707Z,84.38
2022-08-26T16:16:10.875Z,84.38
2022-08-26T16:17:10.828Z,84.38
2022-08-26T16:18:10.888Z,84.38
2022-08-26T16:19:10.982Z,84.38
2022-08-26T16:20:11.013Z,84.38
2022-08-26T16:21:13.700Z,78.75
2022-08-26T16:22:11.141Z,78.75
2022-08-26T16:23:11.200Z,78.75
2022-08-26T16:24:11.282Z,78.75
2022-08-26T16:25:11.336Z,78.75
2022-08-26T16:26:11.383Z,78.75
2022-08-26T16:27:11.445Z,78.75
2022-08-26T16:28:11.768Z,78.75
2022-08-26T16:29:11.601Z,78.75
2022-08-26T16:30:11.620Z,78.75
2022-08-26T16:31:11.733Z,78.75
2022-08-26T16:32:11.778Z,78.75
2022-08-26T16:33:11.800Z,78.75
2022-08-26T16:34:11.863Z,78.75
2022-08-26T16:35:11.924Z,73.13
2022-08-26T16:36:11.991Z,73.13
2022-08-26T16:37:12.076Z,73.13
2022-08-26T16:38:12.096Z,73.13
2022-08-26T16:39:12.159Z,73.13
2022-08-26T16:40:12.239Z,73.13
2022-08-26T16:41:12.271Z,67.50
2022-08-26T16:42:12.366Z,67.50
2022-08-26T16:43:15.323Z,67.50
2022-08-26T16:44:12.447Z,67.50
2022-08-26T16:45:12.507Z,67.50
2022-08-26T16:46:12.574Z,67.50
2022-08-26T16:47:12.648Z,61.88
2022-08-26T16:48:12.693Z,61.88
2022-08-26T16:49:12.734Z,61.88
2022-08-26T16:50:12.802Z,61.88
2022-08-26T16:51:12.854Z,61.88
2022-08-26T16:52:12.939Z,61.88
2022-08-26T16:54:13.022Z,56.25
2022-08-26T16:55:13.097Z,56.25
2022-08-26T16:56:13.165Z,56.25
2022-08-26T16:57:13.212Z,56.25
2022-08-26T16:58:13.249Z,50.63
2022-08-26T16:59:13.339Z,50.63
2022-08-26T17:00:13.365Z,50.63
2022-08-26T17:01:13.470Z,50.63
2022-08-26T17:02:13.481Z,50.63
2022-08-26T17:03:13.609Z,45.00
2022-08-26T17:04:13.649Z,45.00
2022-08-26T17:05:13.648Z,45.00
2022-08-26T17:06:13.704Z,45.00
2022-08-26T17:07:13.791Z,39.38
2022-08-26T17:08:21.853Z,39.38
2022-08-26T17:09:13.918Z,39.38
2022-08-26T17:10:13.931Z,33.75
2022-08-26T17:11:14.010Z,33.75
2022-08-26T17:12:14.093Z,33.75
2022-08-26T17:13:16.064Z,33.75
2022-08-26T17:14:14.165Z,33.75
2022-08-26T17:15:14.214Z,33.75
2022-08-26T17:16:14.408Z,28.13
2022-08-26T17:17:14.341Z,28.13
2022-08-26T17:18:14.390Z,28.13
2022-08-26T17:19:14.489Z,28.13
2022-08-26T17:20:14.495Z,28.13
2022-08-26T17:21:14.564Z,28.13
2022-08-26T17:22:14.608Z,28.13
2022-08-26T17:23:14.665Z,28.13
2022-08-26T17:24:14.779Z,28.13
2022-08-26T17:25:14.792Z,28.13
2022-08-26T17:26:14.859Z,28.13
2022-08-26T17:27:14.914Z,22.50
2022-08-26T17:28:15.053Z,22.50
2022-08-26T17:29:15.007Z,22.50
2022-08-26T17:30:15.105Z,22.50
2022-08-26T17:31:15.138Z,22.50
2022-08-26T17:32:15.177Z,22.50
2022-08-26T17:33:15.252Z,22.50
2022-08-26T17:34:15.311Z,22.50
2022-08-26T17:35:15.368Z,16.88
2022-08-26T17:36:15.420Z,16.88
2022-08-26T17:37:15.477Z,16.88
2022-08-26T17:38:15.526Z,16.88
2022-08-26T17:39:15.571Z,16.88
2022-08-26T17:40:15.665Z,16.88
2022-08-26T17:41:15.706Z,16.88
2022-08-26T17:42:15.738Z,16.88
2022-08-26T17:43:15.800Z,16.88
2022-08-26T17:44:15.837Z,11.25
2022-08-26T17:45:15.970Z,11.25
2022-08-26T17:46:16.049Z,11.25
2022-08-26T17:52:12.404Z,11.25
2022-08-26T17:53:17.817Z,11.25
2022-08-26T17:54:12.521Z,11.25
2022-08-26T17:55:12.555Z,11.25
2022-08-26T17:56:12.579Z,11.25
2022-08-26T17:57:12.662Z,5.63
2022-08-26T17:58:14.657Z,5.63
2022-08-26T17:59:12.796Z,5.63
2022-08-26T18:00:12.822Z,5.63
2022-08-26T18:01:12.944Z,5.63
2022-08-26T18:02:12.938Z,5.63
2022-08-26T18:03:13.032Z,5.63
2022-08-26T18:04:13.353Z,5.63
2022-08-26T18:05:13.070Z,5.63
2022-08-26T18:06:13.126Z,5.63
2022-08-26T18:07:13.181Z,5.63
2022-08-26T18:08:13.236Z,0.00
2022-08-26T18:09:13.318Z,0.00
2022-08-26T18:10:13.640Z,0.00
2022-08-26T18:40:17.204Z,0.00
2022-08-26T18:41:12.666Z,0.00
2022-08-26T18:54:36.167Z,0.00
2022-08-26T18:54:57.076Z,0.00
